createdAt,value
2019-03-12T00:00:51.094Z,99.90
2019-03-12T00:03:17.465Z,99.90
2019-03-12T00:05:43.917Z,99.90
2019-03-12T00:08:10.344Z,99.90
2019-03-12T00:10:36.737Z,99.90
2019-03-12T00:13:03.163Z,99.90
2019-03-12T00:15:29.603Z,99.90
2019-03-12T00:17:55.962Z,99.90
2019-03-12T00:20:22.412Z,99.90
2019-03-12T00:22:48.735Z,99.90
2019-03-12T00:25:15.195Z,99.90
2019-03-12T00:27:44.565Z,99.90
2019-03-12T00:30:11.042Z,99.90
2019-03-12T00:32:37.398Z,99.90
2019-03-12T00:35:05.442Z,99.90
2019-03-12T00:37:31.825Z,99.90
2019-03-12T00:39:58.154Z,99.90
2019-03-12T00:42:24.506Z,99.90
2019-03-12T00:44:51.197Z,99.90
2019-03-12T00:50:28.980Z,99.90
2019-03-12T00:52:55.391Z,99.90
2019-03-12T00:55:22.796Z,99.90
2019-03-12T00:57:49.172Z,99.90
2019-03-12T01:00:17.546Z,99.90
2019-03-12T01:02:43.944Z,99.90
2019-03-12T01:05:10.345Z,99.90
2019-03-12T01:07:36.813Z,99.90
2019-03-12T01:10:05.513Z,99.90
2019-03-12T01:12:32.013Z,99.90
2019-03-12T01:14:58.360Z,99.90
2019-03-12T01:17:24.717Z,99.90
2019-03-12T01:19:51.129Z,99.90
2019-03-12T01:22:17.555Z,99.90
2019-03-12T01:24:43.944Z,99.90
2019-03-12T01:27:10.300Z,99.90
2019-03-12T01:29:36.702Z,99.90
2019-03-12T01:32:03.075Z,99.90
2019-03-12T01:34:29.496Z,99.90
2019-03-12T01:36:55.883Z,99.90
2019-03-12T01:39:22.320Z,99.90
2019-03-12T01:41:48.728Z,99.90
2019-03-12T01:44:15.063Z,99.90
2019-03-12T01:46:41.502Z,99.90
2019-03-12T01:49:07.832Z,99.90
2019-03-12T01:51:34.238Z,99.90
2019-03-12T01:54:00.624Z,99.90
2019-03-12T01:56:27.029Z,99.90
2019-03-12T01:58:53.439Z,99.90
2019-03-12T02:01:19.867Z,99.90
2019-03-12T02:03:46.343Z,99.90
2019-03-12T02:06:12.786Z,99.90
2019-03-12T02:08:39.260Z,99.90
2019-03-12T02:11:05.599Z,99.90
2019-03-12T02:13:32.018Z,99.90
2019-03-12T02:15:58.462Z,99.90
2019-03-12T02:18:24.996Z,99.90
2019-03-12T02:20:51.371Z,99.90
2019-03-12T02:23:17.807Z,99.90
2019-03-12T02:25:44.242Z,99.90
2019-03-12T02:28:10.749Z,99.90
2019-03-12T02:30:37.106Z,99.90
2019-03-12T02:33:03.737Z,99.90
2019-03-12T02:35:30.185Z,99.90
2019-03-12T02:37:56.637Z,99.90
2019-03-12T02:40:23.087Z,99.90
2019-03-12T02:42:49.532Z,99.90
2019-03-12T02:45:15.957Z,99.90
2019-03-12T02:47:42.306Z,99.90
2019-03-12T02:50:14.454Z,99.90
2019-03-12T02:52:41.552Z,99.90
2019-03-12T02:55:08.577Z,99.90
2019-03-12T02:57:35.010Z,99.90
2019-03-12T03:00:03.754Z,99.90
2019-03-12T03:02:30.661Z,99.90
2019-03-12T03:04:57.072Z,99.90
2019-03-12T03:07:28.207Z,99.90
2019-03-12T03:09:54.581Z,99.90
2019-03-12T03:12:20.957Z,99.90
2019-03-12T03:14:47.593Z,99.90
2019-03-12T03:17:14.813Z,99.90
2019-03-12T03:19:41.138Z,99.90
2019-03-12T03:22:07.555Z,99.90
2019-03-12T03:24:33.976Z,99.90
2019-03-12T03:27:00.428Z,99.90
2019-03-12T03:29:26.896Z,99.90
2019-03-12T03:31:53.367Z,99.90
2019-03-12T03:34:27.020Z,99.90
2019-03-12T03:36:48.017Z,99.90
2019-03-12T03:39:14.435Z,99.90
2019-03-12T03:41:40.901Z,99.90
2019-03-12T03:44:07.237Z,99.90
2019-03-12T03:46:33.662Z,99.90
2019-03-12T03:49:00.004Z,99.90
2019-03-12T03:51:26.441Z,99.90
2019-03-12T03:53:53.986Z,99.90
2019-03-12T03:56:20.476Z,99.90
2019-03-12T03:58:46.869Z,99.90
2019-03-12T04:01:13.243Z,99.90
2019-03-12T04:03:39.650Z,99.90
2019-03-12T04:06:06.022Z,99.90
2019-03-12T04:08:32.430Z,99.90
2019-03-12T04:10:59.115Z,99.90
2019-03-12T04:13:25.720Z,99.90
2019-03-12T04:15:52.140Z,99.90
2019-03-12T04:18:18.578Z,99.90
2019-03-12T04:20:44.955Z,99.90
2019-03-12T04:23:11.469Z,99.90
2019-03-12T04:25:37.848Z,99.90
2019-03-12T04:28:04.166Z,99.90
2019-03-12T04:30:30.607Z,99.90
2019-03-12T04:32:56.951Z,99.90
2019-03-12T04:35:34.077Z,99.90
2019-03-12T04:38:00.458Z,99.90
2019-03-12T04:40:26.907Z,99.90
2019-03-12T04:42:53.385Z,99.90
2019-03-12T04:45:19.810Z,99.90
2019-03-12T04:47:46.241Z,99.90
2019-03-12T04:50:14.047Z,99.90
2019-03-12T04:52:40.467Z,99.90
2019-03-12T04:55:12.693Z,99.90
2019-03-12T04:57:40.103Z,99.90
2019-03-12T05:00:09.955Z,99.90
2019-03-12T05:02:36.333Z,99.90
2019-03-12T05:05:04.719Z,99.90
2019-03-12T05:07:31.164Z,99.90
2019-03-12T05:09:57.669Z,99.90
2019-03-12T05:12:24.189Z,99.90
2019-03-12T05:14:50.541Z,99.90
2019-03-12T05:17:16.964Z,99.90
2019-03-12T05:19:44.266Z,99.90
2019-03-12T05:22:10.915Z,99.90
2019-03-12T05:24:37.436Z,99.90
2019-03-12T05:27:03.942Z,99.90
2019-03-12T05:29:30.333Z,99.90
2019-03-12T05:31:56.777Z,99.90
2019-03-12T05:34:23.471Z,99.90
2019-03-12T05:36:50.079Z,99.90
2019-03-12T05:39:16.545Z,99.90
2019-03-12T05:41:43.041Z,99.90
2019-03-12T05:44:09.523Z,99.90
2019-03-12T05:46:35.946Z,99.90
2019-03-12T05:49:02.453Z,99.90
2019-03-12T05:51:28.900Z,99.90
2019-03-12T05:53:55.293Z,99.90
2019-03-12T05:56:21.714Z,99.90
2019-03-12T05:58:48.103Z,99.90
2019-03-12T06:01:14.625Z,99.90
2019-03-12T06:03:41.163Z,99.90
2019-03-12T06:06:07.523Z,99.90
2019-03-12T06:08:34.026Z,99.90
2019-03-12T06:11:00.364Z,99.90
2019-03-12T06:13:26.773Z,99.90
2019-03-12T06:15:53.358Z,99.90
2019-03-12T06:18:19.877Z,99.90
2019-03-12T06:20:46.373Z,99.90
2019-03-12T06:23:15.316Z,99.90
2019-03-12T06:25:41.930Z,99.90
2019-03-12T06:28:08.396Z,99.90
2019-03-12T06:30:36.698Z,99.90
2019-03-12T06:33:05.055Z,99.90
2019-03-12T06:35:54.190Z,99.90
2019-03-12T06:38:24.823Z,99.90
2019-03-12T06:40:55.896Z,99.90
2019-03-12T06:43:24.208Z,99.90
2019-03-12T06:45:55.417Z,99.90
2019-03-12T06:48:23.826Z,99.90
2019-03-12T06:50:52.322Z,99.30
2019-03-12T06:53:37.827Z,97.10
2019-03-12T06:56:22.715Z,94.50
2019-03-12T06:59:03.306Z,92.60
2019-03-12T07:01:43.831Z,93.10
2019-03-12T07:04:12.127Z,91.50
2019-03-12T07:06:43.320Z,90.50
2019-03-12T07:09:14.474Z,90.20
2019-03-12T07:11:48.850Z,90.50
2019-03-12T07:14:32.235Z,87.10
2019-03-12T07:17:06.545Z,83.40
2019-03-12T07:19:51.507Z,81.80
2019-03-12T07:22:29.178Z,81.10
2019-03-12T07:25:00.399Z,82.20
2019-03-12T07:27:28.820Z,74.30
2019-03-12T07:29:57.109Z,73.40
2019-03-12T07:32:25.421Z,75.60
2019-03-12T07:35:08.882Z,72.00
2019-03-12T07:37:53.574Z,68.10
2019-03-12T07:40:21.883Z,67.70
2019-03-12T07:42:58.969Z,65.80
2019-03-12T07:45:29.842Z,68.90
2019-03-12T07:47:58.080Z,66.30
2019-03-12T07:50:32.378Z,60.00
2019-03-12T07:53:19.105Z,63.90
2019-03-12T07:55:56.897Z,67.60
2019-03-12T07:58:35.662Z,61.00
2019-03-12T08:01:07.112Z,64.10
2019-03-12T08:03:45.380Z,60.80
2019-03-12T08:06:30.609Z,63.60
2019-03-12T08:09:11.105Z,64.10
2019-03-12T08:11:46.425Z,62.20
2019-03-12T08:14:17.511Z,60.20
2019-03-12T08:16:51.689Z,59.50
2019-03-12T08:19:32.273Z,61.60
2019-03-12T08:22:12.606Z,58.90
2019-03-12T08:24:46.974Z,59.40
2019-03-12T08:27:17.997Z,57.60
2019-03-12T08:29:46.323Z,57.40
2019-03-12T08:32:24.089Z,55.40
2019-03-12T08:34:52.694Z,53.90
2019-03-12T08:37:21.044Z,50.70
2019-03-12T08:39:58.041Z,50.60
2019-03-12T08:42:28.947Z,51.20
2019-03-12T08:45:15.401Z,52.90
2019-03-12T08:47:51.399Z,47.90
2019-03-12T08:50:26.168Z,46.80
2019-03-12T08:52:54.516Z,45.60
2019-03-12T08:55:28.750Z,42.00
2019-03-12T08:58:12.773Z,41.60
2019-03-12T09:00:41.171Z,44.10
2019-03-12T09:03:26.189Z,43.10
2019-03-12T09:05:54.498Z,40.10
2019-03-12T09:08:25.574Z,40.30
2019-03-12T09:10:56.915Z,39.20
2019-03-12T09:13:41.689Z,41.50
2019-03-12T09:16:16.250Z,42.00
2019-03-12T09:18:50.595Z,42.80
2019-03-12T09:21:31.369Z,42.30
2019-03-12T09:24:16.383Z,43.50
2019-03-12T09:26:47.743Z,44.50
2019-03-12T09:29:21.859Z,42.70
2019-03-12T09:31:55.729Z,41.70
2019-03-12T09:34:26.946Z,40.30
2019-03-12T09:36:58.391Z,44.60
2019-03-12T09:39:38.982Z,47.00
2019-03-12T09:42:25.729Z,47.70
2019-03-12T09:44:59.895Z,49.70
2019-03-12T09:47:31.377Z,49.20
2019-03-12T09:50:08.665Z,51.00
2019-03-12T09:52:55.256Z,50.30
2019-03-12T09:55:26.103Z,54.70
2019-03-12T09:57:57.137Z,59.10
2019-03-12T10:00:25.509Z,58.20
2019-03-12T10:02:56.912Z,63.70
2019-03-12T10:05:25.238Z,63.00
2019-03-12T10:08:02.876Z,65.70
2019-03-12T10:10:43.444Z,66.30
2019-03-12T10:13:20.992Z,68.50
2019-03-12T10:16:06.061Z,69.60
2019-03-12T10:18:43.628Z,70.70
2019-03-12T10:21:14.512Z,73.50
2019-03-12T10:23:43.738Z,77.60
2019-03-12T10:26:12.029Z,77.60
2019-03-12T10:28:57.320Z,75.80
2019-03-12T10:31:42.038Z,70.30
2019-03-12T10:34:10.374Z,60.40
2019-03-12T10:36:39.805Z,58.50
2019-03-12T10:40:02.250Z,63.00
2019-03-12T10:42:44.529Z,65.70
2019-03-12T10:45:31.299Z,63.50
2019-03-12T10:48:00.113Z,62.00
2019-03-12T10:50:26.606Z,58.70
2019-03-12T10:52:53.010Z,55.90
2019-03-12T10:55:19.527Z,56.00
2019-03-12T10:57:45.862Z,53.50
2019-03-12T11:00:14.078Z,53.00
2019-03-12T11:02:40.825Z,54.40
2019-03-12T11:05:07.543Z,51.20
2019-03-12T11:07:33.972Z,52.50
2019-03-12T11:10:00.522Z,52.80
2019-03-12T11:12:26.985Z,55.60
2019-03-12T11:14:53.411Z,58.70
2019-03-12T11:17:19.891Z,58.60
2019-03-12T11:19:46.409Z,62.80
2019-03-12T11:22:12.874Z,64.40
2019-03-12T11:24:39.326Z,63.30
2019-03-12T11:27:05.743Z,63.70
2019-03-12T11:29:32.126Z,65.00
2019-03-12T11:31:58.581Z,62.80
2019-03-12T11:34:25.067Z,71.10
2019-03-12T11:36:51.538Z,75.10
2019-03-12T11:39:17.946Z,70.30
2019-03-12T11:41:44.685Z,66.10
2019-03-12T11:44:11.151Z,64.80
2019-03-12T11:46:44.090Z,68.90
2019-03-12T11:49:05.831Z,65.30
2019-03-12T11:51:32.369Z,61.80
2019-03-12T11:53:58.724Z,56.70
2019-03-12T11:56:26.205Z,55.90
2019-03-12T11:58:52.596Z,50.70
2019-03-12T12:01:19.037Z,48.80
2019-03-12T12:03:45.402Z,51.90
2019-03-12T12:06:11.859Z,55.10
2019-03-12T12:08:38.286Z,57.60
2019-03-12T12:11:04.690Z,58.50
2019-03-12T12:13:31.076Z,54.70
2019-03-12T12:15:57.471Z,52.70
2019-03-12T12:18:23.957Z,53.10
2019-03-12T12:20:50.384Z,53.80
2019-03-12T12:23:16.775Z,50.30
2019-03-12T12:25:44.102Z,47.90
2019-03-12T12:28:10.541Z,46.40
2019-03-12T12:30:36.894Z,47.40
2019-03-12T12:33:03.287Z,48.90
2019-03-12T12:35:29.638Z,52.70
2019-03-12T12:37:56.056Z,56.50
2019-03-12T12:40:22.574Z,60.60
2019-03-12T12:42:49.017Z,65.90
2019-03-12T12:45:25.162Z,68.90
2019-03-12T12:47:51.584Z,73.00
2019-03-12T12:50:18.081Z,67.30
2019-03-12T12:52:44.822Z,63.90
2019-03-12T12:55:13.062Z,59.60
2019-03-12T12:57:39.492Z,57.90
2019-03-12T13:00:12.401Z,60.70
2019-03-12T13:02:38.993Z,59.00
2019-03-12T13:05:05.563Z,58.80
2019-03-12T13:07:31.977Z,57.10
2019-03-12T13:09:58.358Z,54.10
2019-03-12T13:12:24.808Z,52.20
2019-03-12T13:14:51.228Z,53.70
2019-03-12T13:17:17.622Z,53.40
2019-03-12T13:19:44.160Z,51.60
2019-03-12T13:22:10.596Z,51.30
2019-03-12T13:24:37.028Z,52.70
2019-03-12T13:27:03.463Z,50.20
2019-03-12T13:29:29.900Z,51.30
2019-03-12T13:31:56.350Z,51.00
2019-03-12T13:34:22.716Z,50.00
2019-03-12T13:36:49.174Z,48.20
2019-03-12T13:39:15.654Z,48.30
2019-03-12T13:41:42.212Z,49.50
2019-03-12T13:44:08.648Z,52.80
2019-03-12T13:46:35.197Z,56.60
2019-03-12T13:49:01.636Z,58.40
2019-03-12T13:51:28.054Z,62.30
2019-03-12T13:53:54.467Z,67.20
2019-03-12T13:56:20.895Z,69.80
2019-03-12T13:58:47.359Z,70.60
2019-03-12T14:01:13.801Z,72.00
2019-03-12T14:03:40.305Z,73.90
2019-03-12T14:06:07.565Z,74.00
2019-03-12T14:08:33.975Z,66.40
2019-03-12T14:11:00.446Z,63.80
2019-03-12T14:13:27.082Z,66.60
2019-03-12T14:15:53.667Z,69.00
2019-03-12T14:18:20.098Z,70.60
2019-03-12T14:20:52.829Z,69.40
2019-03-12T14:23:34.319Z,71.90
2019-03-12T14:26:00.912Z,73.20
2019-03-12T14:28:27.365Z,76.60
2019-03-12T14:30:53.903Z,80.00
2019-03-12T14:33:20.317Z,82.00
2019-03-12T14:35:51.324Z,83.60
2019-03-12T14:38:15.074Z,84.30
2019-03-12T14:40:41.711Z,85.40
2019-03-12T14:43:08.261Z,88.30
2019-03-12T14:45:36.922Z,88.00
2019-03-12T14:48:03.366Z,88.10
2019-03-12T14:50:30.994Z,89.50
2019-03-12T14:53:17.323Z,88.20
2019-03-12T14:55:35.847Z,88.80
2019-03-12T14:58:02.334Z,89.70
2019-03-12T15:00:28.817Z,92.10
2019-03-12T15:02:55.218Z,90.30
2019-03-12T15:05:21.749Z,90.10
2019-03-12T15:07:48.278Z,90.90
2019-03-12T15:10:14.910Z,90.70
2019-03-12T15:12:41.326Z,91.00
2019-03-12T15:15:09.663Z,91.10
2019-03-12T15:17:36.086Z,91.80
2019-03-12T15:20:04.734Z,91.90
2019-03-12T15:22:31.234Z,92.60
2019-03-12T15:24:57.735Z,92.60
2019-03-12T15:27:24.211Z,93.20
2019-03-12T15:29:50.662Z,93.30
2019-03-12T15:32:18.100Z,93.40
2019-03-12T15:34:44.510Z,93.70
2019-03-12T15:37:10.940Z,93.80
2019-03-12T15:39:37.427Z,94.00
2019-03-12T15:42:03.924Z,94.10
2019-03-12T15:44:30.361Z,94.00
2019-03-12T15:46:56.824Z,94.20
2019-03-12T15:51:50.154Z,94.00
2019-03-12T15:54:16.546Z,94.70
2019-03-12T15:56:42.985Z,98.30
2019-03-12T15:59:09.397Z,95.00
2019-03-12T16:01:37.595Z,95.30
2019-03-12T16:04:05.065Z,95.40
2019-03-12T16:06:31.534Z,95.50
2019-03-12T16:08:57.989Z,95.80
2019-03-12T16:11:24.357Z,99.60
2019-03-12T16:13:50.787Z,99.90
2019-03-12T16:16:17.275Z,96.60
2019-03-12T16:18:43.803Z,96.60
2019-03-12T16:21:10.241Z,96.80
2019-03-12T16:23:36.642Z,96.70
2019-03-12T16:26:02.958Z,96.80
2019-03-12T16:28:29.374Z,97.10
2019-03-12T16:30:55.753Z,97.20
2019-03-12T16:33:22.190Z,97.50
2019-03-12T16:35:49.509Z,97.50
2019-03-12T16:38:16.175Z,97.70
2019-03-12T16:40:42.509Z,97.70
2019-03-12T16:43:08.955Z,99.90
2019-03-12T16:45:35.303Z,98.00
2019-03-12T16:48:01.750Z,98.10
2019-03-12T16:50:28.247Z,98.50
2019-03-12T16:52:54.670Z,98.40
2019-03-12T16:55:21.102Z,98.60
2019-03-12T16:57:47.512Z,98.90
2019-03-12T17:00:18.261Z,99.10
2019-03-12T17:02:45.391Z,99.40
2019-03-12T17:05:12.535Z,99.50
2019-03-12T17:07:38.957Z,99.50
2019-03-12T17:10:08.833Z,99.70
2019-03-12T17:12:35.376Z,99.70
2019-03-12T17:15:02.639Z,99.90
2019-03-12T17:17:31.487Z,99.90
2019-03-12T17:19:58.591Z,99.90
2019-03-12T17:22:25.715Z,99.90
2019-03-12T17:24:52.219Z,99.90
2019-03-12T17:27:18.674Z,99.90
2019-03-12T17:29:45.277Z,99.90
2019-03-12T17:32:12.807Z,99.90
2019-03-12T17:34:39.255Z,99.90
2019-03-12T17:37:05.712Z,99.90
2019-03-12T17:39:32.321Z,99.90
2019-03-12T17:41:59.048Z,99.90
2019-03-12T17:44:25.645Z,99.90
2019-03-12T17:46:52.070Z,99.90
2019-03-12T17:49:18.557Z,99.90
2019-03-12T17:51:45.063Z,99.90
2019-03-12T17:54:11.530Z,99.90
2019-03-12T17:56:38.006Z,99.90
2019-03-12T17:59:04.481Z,99.90
2019-03-12T18:01:30.907Z,99.90
2019-03-12T18:03:57.363Z,99.90
2019-03-12T18:06:23.849Z,99.90
2019-03-12T18:08:50.350Z,99.90
2019-03-12T18:11:16.779Z,99.90
2019-03-12T18:13:43.233Z,99.90
2019-03-12T18:16:09.761Z,99.90
2019-03-12T18:18:36.221Z,99.90
2019-03-12T18:21:02.751Z,99.90
2019-03-12T18:23:29.150Z,99.90
2019-03-12T18:25:55.545Z,99.90
2019-03-12T18:28:22.626Z,99.90
2019-03-12T18:30:49.728Z,99.90
2019-03-12T18:33:16.952Z,99.90
2019-03-12T18:35:43.453Z,99.90
2019-03-12T18:38:09.898Z,99.90
2019-03-12T18:40:36.343Z,99.90
2019-03-12T18:43:02.988Z,99.90
2019-03-12T18:45:31.631Z,99.90
2019-03-12T18:47:58.524Z,99.90
2019-03-12T18:50:25.106Z,99.90
2019-03-12T18:52:51.687Z,99.90
2019-03-12T18:55:33.825Z,99.90
2019-03-12T18:58:02.114Z,99.90
2019-03-12T19:00:30.915Z,99.90
2019-03-12T19:02:58.767Z,99.90
2019-03-12T19:05:28.200Z,99.90
2019-03-12T19:07:54.802Z,99.90
2019-03-12T19:10:21.257Z,99.90
2019-03-12T19:12:47.693Z,99.90
2019-03-12T19:15:14.815Z,99.90
2019-03-12T19:17:41.294Z,99.90
2019-03-12T19:20:17.926Z,99.90
2019-03-12T19:22:44.534Z,99.90
2019-03-12T19:25:14.074Z,99.90
2019-03-12T19:27:40.657Z,99.90
2019-03-12T19:30:12.792Z,99.90
2019-03-12T19:32:49.497Z,99.90
2019-03-12T19:35:19.646Z,99.90
2019-03-12T19:37:46.318Z,99.90
2019-03-12T19:40:18.897Z,99.90
2019-03-12T19:42:45.626Z,99.90
2019-03-12T19:45:12.455Z,99.90
2019-03-12T19:47:39.287Z,99.90
2019-03-12T19:50:15.980Z,99.90
2019-03-12T19:52:42.627Z,99.90
2019-03-12T19:55:15.319Z,99.90
2019-03-12T19:57:42.447Z,99.90
2019-03-12T20:00:12.807Z,99.90
2019-03-12T20:02:39.955Z,99.90
2019-03-12T20:05:08.869Z,99.90
2019-03-12T20:07:35.864Z,99.90
2019-03-12T20:10:27.414Z,99.90
2019-03-12T20:13:20.652Z,99.90
2019-03-12T20:16:07.968Z,99.90
2019-03-12T20:18:56.773Z,99.90
2019-03-12T20:21:29.902Z,99.90
2019-03-12T20:24:32.132Z,99.90
2019-03-12T20:27:36.044Z,99.90
2019-03-12T20:30:25.871Z,99.90
2019-03-12T20:33:16.094Z,99.90
2019-03-12T20:36:20.337Z,99.90
2019-03-12T20:39:16.790Z,99.90
2019-03-12T20:42:11.752Z,99.90
2019-03-12T20:45:16.629Z,99.90
2019-03-12T20:48:10.151Z,99.90
2019-03-12T20:51:01.770Z,99.90
2019-03-12T20:54:05.158Z,99.90
2019-03-12T20:56:59.739Z,99.90
2019-03-12T20:59:56.236Z,99.90
2019-03-12T21:02:38.808Z,99.90
2019-03-12T21:05:44.494Z,99.90
2019-03-12T21:08:27.043Z,99.90
2019-03-12T21:11:31.267Z,99.90
2019-03-12T21:14:13.017Z,99.90
2019-03-12T21:17:14.765Z,99.90
2019-03-12T21:20:04.709Z,99.90
2019-03-12T21:22:51.819Z,99.90
2019-03-12T21:25:54.365Z,99.90
2019-03-12T21:28:36.562Z,99.90
2019-03-12T21:31:02.990Z,99.90
2019-03-12T21:33:29.441Z,99.90
2019-03-12T21:35:55.837Z,99.90
2019-03-12T21:38:22.306Z,99.90
2019-03-12T21:40:48.749Z,99.90
2019-03-12T21:43:15.173Z,99.90
2019-03-12T21:45:41.617Z,99.90
2019-03-12T21:48:08.035Z,99.90
2019-03-12T21:50:34.511Z,99.90
2019-03-12T21:53:00.934Z,99.90
2019-03-12T21:55:27.374Z,99.90
2019-03-12T21:57:54.070Z,99.90
2019-03-12T22:00:20.474Z,99.90
2019-03-12T22:02:47.109Z,99.90
2019-03-12T22:05:13.565Z,99.90
2019-03-12T22:07:39.991Z,99.90
2019-03-12T22:10:09.015Z,99.90
2019-03-12T22:12:35.541Z,99.90
2019-03-12T22:15:03.888Z,99.90
2019-03-12T22:17:32.265Z,99.90
2019-03-12T22:19:58.692Z,99.90
2019-03-12T22:22:27.031Z,99.90
2019-03-12T22:24:53.479Z,99.90
2019-03-12T22:27:20.037Z,99.90
2019-03-12T22:29:46.459Z,99.90
2019-03-12T22:32:12.929Z,99.90
2019-03-12T22:34:39.391Z,99.90
2019-03-12T22:37:05.795Z,99.90
2019-03-12T22:39:32.287Z,99.90
2019-03-12T22:41:58.762Z,99.90
2019-03-12T22:44:25.171Z,99.90
2019-03-12T22:46:51.627Z,99.90
2019-03-12T22:49:19.068Z,99.90
2019-03-12T22:51:45.545Z,99.90
2019-03-12T22:54:11.992Z,99.90
2019-03-12T22:56:38.511Z,99.90
2019-03-12T22:59:06.922Z,99.90
2019-03-12T23:01:51.640Z,99.90
2019-03-12T23:04:36.540Z,99.90
2019-03-12T23:07:21.817Z,99.90
2019-03-12T23:09:50.247Z,99.90
2019-03-12T23:12:18.811Z,99.90
2019-03-12T23:14:47.210Z,99.90
2019-03-12T23:17:15.756Z,99.90
2019-03-12T23:19:44.142Z,99.90
2019-03-12T23:22:10.621Z,99.90
2019-03-12T23:24:37.582Z,99.90
2019-03-12T23:27:04.117Z,99.90
2019-03-12T23:29:30.581Z,99.90
2019-03-12T23:31:58.188Z,99.90
2019-03-12T23:34:24.674Z,99.90
2019-03-12T23:36:51.126Z,99.90
2019-03-12T23:39:17.570Z,99.90
2019-03-12T23:41:44.229Z,99.90
2019-03-12T23:44:10.938Z,99.90
2019-03-12T23:46:37.412Z,99.90
2019-03-12T23:49:04.003Z,99.90
2019-03-12T23:51:30.564Z,99.90
2019-03-12T23:53:57.029Z,99.90
2019-03-12T23:56:24.635Z,99.90
2019-03-12T23:58:51.122Z,99.90
